createdAt,value
2023-01-23T00:01:57.014Z,42.20
2023-01-23T00:04:26.258Z,45.87
2023-01-23T00:06:55.171Z,42.87
2023-01-23T00:09:24.531Z,42.30
2023-01-23T00:11:52.921Z,40.70
2023-01-23T00:14:22.780Z,41.77
2023-01-23T00:16:51.212Z,43.17
2023-01-23T00:19:21.857Z,43.17
2023-01-23T00:21:50.309Z,43.83
2023-01-23T00:24:19.631Z,39.03
2023-01-23T00:26:48.023Z,40.53
2023-01-23T00:29:16.518Z,46.37
2023-01-23T00:31:46.557Z,42.27
2023-01-23T00:34:21.463Z,41.20
2023-01-23T00:36:49.949Z,36.63
2023-01-23T00:39:21.116Z,43.63
2023-01-23T00:41:50.552Z,38.80
2023-01-23T00:44:20.389Z,39.20
2023-01-23T06:53:43.743Z,39.20
2023-01-23T06:59:46.296Z,38.80
2023-01-23T07:33:21.630Z,33.50
2023-01-23T08:46:05.257Z,37.90
2023-01-23T08:48:35.447Z,42.67
2023-01-23T08:51:06.774Z,48.50
2023-01-23T08:53:36.263Z,55.17
2023-01-23T09:15:33.206Z,47.37
2023-01-23T11:06:26.375Z,28.80
2023-01-23T11:08:58.899Z,27.50
2023-01-23T11:11:30.071Z,30.13
2023-01-23T11:39:32.924Z,27.17
2023-01-23T11:42:28.498Z,25.80
2023-01-23T11:48:36.508Z,30.50
2023-01-23T11:54:06.017Z,28.63
2023-01-23T14:31:34.869Z,24.47
2023-01-23T14:34:10.407Z,22.40
2023-01-23T14:36:47.673Z,21.90
2023-01-23T14:43:50.339Z,22.50
2023-01-23T15:32:01.797Z,30.13
2023-01-23T16:01:03.352Z,27.33
2023-01-23T16:18:16.489Z,34.70
2023-01-23T16:23:55.436Z,26.90
2023-01-23T16:26:26.966Z,26.30
2023-01-23T16:29:12.083Z,28.63
2023-01-23T16:31:46.483Z,27.07
2023-01-23T16:34:15.390Z,28.17
2023-01-23T16:36:46.094Z,26.33
2023-01-23T16:39:19.124Z,26.93
2023-01-23T16:41:49.606Z,27.70
2023-01-23T16:44:22.886Z,25.63
2023-01-23T16:46:52.988Z,27.53
2023-01-23T16:49:24.081Z,27.40
2023-01-23T16:51:59.623Z,28.33
2023-01-23T16:54:29.631Z,27.47
2023-01-23T16:56:59.710Z,28.33
2023-01-23T16:59:56.817Z,28.57
2023-01-23T17:02:33.466Z,28.77
2023-01-23T17:09:14.315Z,27.37
2023-01-23T17:11:47.741Z,26.43
2023-01-23T17:28:00.678Z,64.80
2023-01-23T17:30:35.401Z,54.80
2023-01-23T18:13:15.273Z,29.10
2023-01-23T18:30:20.442Z,28.23
2023-01-23T18:37:03.696Z,27.37
2023-01-23T19:32:46.249Z,28.07
2023-01-23T19:39:07.223Z,26.80
2023-01-23T20:18:53.381Z,24.27
2023-01-23T21:11:28.616Z,25.07
2023-01-23T21:13:57.332Z,24.27
2023-01-23T21:16:26.666Z,25.03
2023-01-23T21:18:55.463Z,25.23
2023-01-23T21:21:26.783Z,26.87
2023-01-23T21:44:34.797Z,25.37
2023-01-23T21:47:04.615Z,26.43
2023-01-23T21:49:34.245Z,26.07
2023-01-23T21:52:03.115Z,27.37
2023-01-23T22:11:21.706Z,30.70
2023-01-23T22:13:52.045Z,24.73
2023-01-23T22:16:25.572Z,25.83
2023-01-23T22:32:51.297Z,30.90
2023-01-23T22:35:19.767Z,29.90
2023-01-23T22:37:48.695Z,30.67
2023-01-23T22:40:17.657Z,30.53
2023-01-23T22:42:45.898Z,28.70
2023-01-23T22:45:14.333Z,30.53
2023-01-23T22:47:43.454Z,31.17
2023-01-23T22:50:13.760Z,30.50
2023-01-23T22:52:42.265Z,25.47
2023-01-23T22:55:19.702Z,27.63
2023-01-23T22:58:00.121Z,28.40
2023-01-23T23:00:31.206Z,29.57
2023-01-23T23:03:09.152Z,28.67
2023-01-23T23:05:40.838Z,27.80
2023-01-23T23:08:09.697Z,27.83
2023-01-23T23:10:38.369Z,24.13
2023-01-23T23:13:06.614Z,27.53
2023-01-23T23:15:36.545Z,29.67
2023-01-23T23:18:05.128Z,29.50
2023-01-23T23:20:34.272Z,27.43
2023-01-23T23:23:03.871Z,29.03
2023-01-23T23:25:32.951Z,28.90
2023-01-23T23:28:01.560Z,30.93
2023-01-23T23:30:30.223Z,30.83
2023-01-23T23:32:58.926Z,26.60
2023-01-23T23:35:27.183Z,27.07
2023-01-23T23:37:56.414Z,32.20
2023-01-23T23:40:26.024Z,30.87
2023-01-23T23:42:56.373Z,30.20
2023-01-23T23:45:31.355Z,30.77
2023-01-23T23:48:00.421Z,32.57
2023-01-23T23:50:29.119Z,28.87
2023-01-23T23:52:57.468Z,29.27
2023-01-23T23:55:27.755Z,29.40
